Preskocit navigáciu

OPMET


METAR LZMC 140400Z VRB02KT CAVOK 11/09 Q1021=
METAR LZSL 140400Z 00000KT 9999 MIFG FEW001 SCT120 07/06 Q1022=
METAR LZPW 140400Z VRB02KT CAVOK 09/08 Q1020=


TAF LZMC 140430Z 1406/1418 VRB02KT CAVOK
TEMPO 1409/1415 30012KT=
TAF LZSL 140430Z 1406/1418 VRB02KT 9999 MIFG FEW001
BECMG 1406/1408 22007KT CAVOK=
TAF LZPW 140430Z 1406/1418 VRB03KT CAVOK
BECMG 1408/1410 21008KT=


Oblastné QNH:
LZBB 03/06 1019 HPA 764.3 MM =
























Skočiť na menu


Share